Huvudsida
METAR-TAF:

METAR-TAF

Flygplatser :

Mendoza Aerodrome

Mendoza, Argentina

latitud: 32-50S, longitud: 068-47W, höjd: 705 m

Aktuellt väderrapport

Denna rapport gjordes för 56 minuter sedan, klockan 16:00 UTC
Vind 11 kt från sydost
Temperatur 23°C
Fuktighet 22%
Tryck 1019 hPa
Sikt 10 km eller mer
Inga moln under 1 500 m eller inga cumulonimbus

METAR: SAME 251600Z 14011KT CAVOK 23/00 Q1019

Tid: 13:56 (16:56 UTC)

Väderprognos

Denna rapport gjordes för 5 timmar och 56 minuter sedan, klockan 11:00 UTC
Prognos gäller från 25 kl. 12 UTC till 26 kl. 12 UTC
Vind 5 kt från syd
Sikt 10 km eller mer
Få moln på en höjd av 5000 ft
Blir
från 25 kl. 13 UTC till 25 kl. 15 UTC
Vind 10 kt från syd/sydost
Sikt 10 km eller mer
Spridda moln på en höjd av 5000 ft

TAF: SAME 251100Z 2512/2612 18005KT 9999 FEW050 TX25/2520Z TN13/2610Z BECMG 2513/2515 16010KT 9999 SCT050

Aktuella väderrapporter och prognoser från 4000 flygplatser (METAR- och TAF-rapporter).

De tillgängliga stationerna syns som gula och röda prickar på kartan.

För musen över prickarna för att se namnen på stationerna.

Klicka sedan för att få väderrapporter och prognoser.

För att ändra kartan: Klicka på de gröna knapparna med ett svart kors på för att zooma in; den gröna knappen med ett streck på för att zooma ut; eller på de gröna pilarna för angränsande kartor.


METAR-TAF: